Dennis, MA

4:25 PM EST on December 10, 2016 (GMT -0500)
7/10ths ml from Bayview beach | | Change Station

Elev 23 ft 41.74 °N, 70.21 °W | Updated 2 seconds ago

Clear
Clear
28.2 °F
Feels Like 22 °F
N
6.0
Wind Variable Wind from NW
Gusts 7.4 mph

Today
High -- | Low -- °F
--% Chance of Precip.
Yesterday
High -- | Low -- °F
Precip. -- in
Pressure 30.29 in
Visibility 10.0 miles
Clouds Clear
Windchill 22 °F
Dew Point -1 °F
Humidity 28%
Rainfall 0.00 in
Snow Depth Not available.
6:57 AM 4:10 PM
Waxing Gibbous, 86% visible
METAR KHYA 102056Z AUTO 28006KT 10SM CLR M03/M15 A3028 RMK AO2 SLP256 T10281150 53015
Pressure 30.29 in
Visibility 10.0 miles
Clouds Clear
Windchill 22 °F
Dew Point -1 °F
Humidity 28%
Rainfall 0.00 in
Snow Depth Not available.
6:57 AM 4:10 PM
Waxing Gibbous, 86% visible
METAR KHYA 102056Z AUTO 28006KT 10SM CLR M03/M15 A3028 RMK AO2 SLP256 T10281150 53015

10-Day Weather Forecast

Almanac

Astronomy

Dec. 10, 2016 Rise Set
Actual Time
Civil Twilight
Nautical Twilight
Astronomical Twilight
Moon
Length of Visible Light
Length of Day
Tomorrow will be .
, % of the Moon is Illuminated

Today's Extremes

State Highs State Lows

Community

WunderPhotos

Upload Photos

1,956,664 photos uploaded!

WunderBlog® & News

Nearby

Air Quality

  Air Quality AQ Index Pollutant
Not available.

Snow Depth

Station Depth Elevation

Earthquake Activity

City Distance Mag. Time & Date
Minimum magnitude displayed is 2.5.

Coastal Water Temperatures

Place Temperature

Stations

Nearby Weather Stations

Station Location Temp. Windchill Dew Point Humidity Wind Precip. Elev Updated Type
                   

Watches & Warnings

There are currently no watches in effect.